sensor_id;sensor_type;location;lat;lon;timestamp;temperature;humidity
37870;DHT22;62531;53.326;-1.368;2022-08-04T00:02:17;21.30;49.60
37870;DHT22;62531;53.326;-1.368;2022-08-04T00:10:54;21.00;50.10
37870;DHT22;62531;53.326;-1.368;2022-08-04T00:14:58;21.00;50.20
37870;DHT22;62531;53.326;-1.368;2022-08-04T00:19:03;21.00;50.20
37870;DHT22;62531;53.326;-1.368;2022-08-04T00:23:07;21.00;50.30
37870;DHT22;62531;53.326;-1.368;2022-08-04T00:27:08;21.10;50.30
37870;DHT22;62531;53.326;-1.368;2022-08-04T00:31:10;21.10;50.30
37870;DHT22;62531;53.326;-1.368;2022-08-04T00:35:13;21.10;50.10
37870;DHT22;62531;53.326;-1.368;2022-08-04T00:39:15;21.00;50.60
37870;DHT22;62531;53.326;-1.368;2022-08-04T01:04:28;20.40;52.20
37870;DHT22;62531;53.326;-1.368;2022-08-04T01:17:36;19.90;53.70
37870;DHT22;62531;53.326;-1.368;2022-08-04T01:22:04;19.80;53.70
37870;DHT22;62531;53.326;-1.368;2022-08-04T01:30:26;19.60;54.40
37870;DHT22;62531;53.326;-1.368;2022-08-04T01:34:29;19.40;55.00
37870;DHT22;62531;53.326;-1.368;2022-08-04T01:38:36;19.10;55.50
37870;DHT22;62531;53.326;-1.368;2022-08-04T01:42:40;18.80;56.30
37870;DHT22;62531;53.326;-1.368;2022-08-04T01:46:43;19.00;55.80
37870;DHT22;62531;53.326;-1.368;2022-08-04T01:50:46;18.90;56.10
37870;DHT22;62531;53.326;-1.368;2022-08-04T01:54:48;19.00;56.10
37870;DHT22;62531;53.326;-1.368;2022-08-04T01:58:50;19.60;54.40
37870;DHT22;62531;53.326;-1.368;2022-08-04T02:02:57;19.90;53.80
37870;DHT22;62531;53.326;-1.368;2022-08-04T02:07:16;20.10;53.20
37870;DHT22;62531;53.326;-1.368;2022-08-04T02:11:21;20.10;53.20
37870;DHT22;62531;53.326;-1.368;2022-08-04T02:15:30;19.80;53.70
37870;DHT22;62531;53.326;-1.368;2022-08-04T02:19:57;19.60;53.90
37870;DHT22;62531;53.326;-1.368;2022-08-04T02:24:06;19.00;55.40
37870;DHT22;62531;53.326;-1.368;2022-08-04T02:28:11;19.00;55.50
37870;DHT22;62531;53.326;-1.368;2022-08-04T02:32:28;18.90;55.50
37870;DHT22;62531;53.326;-1.368;2022-08-04T02:36:34;18.60;56.20
37870;DHT22;62531;53.326;-1.368;2022-08-04T02:40:38;18.30;57.00
37870;DHT22;62531;53.326;-1.368;2022-08-04T02:44:40;18.20;57.50
37870;DHT22;62531;53.326;-1.368;2022-08-04T02:48:45;18.60;56.30
37870;DHT22;62531;53.326;-1.368;2022-08-04T02:52:49;18.90;55.90
37870;DHT22;62531;53.326;-1.368;2022-08-04T02:56:52;19.30;54.40
37870;DHT22;62531;53.326;-1.368;2022-08-04T03:00:55;19.30;54.70
37870;DHT22;62531;53.326;-1.368;2022-08-04T03:05:02;18.90;55.40
37870;DHT22;62531;53.326;-1.368;2022-08-04T03:13:58;18.40;56.80
37870;DHT22;62531;53.326;-1.368;2022-08-04T03:18:14;18.20;57.20
37870;DHT22;62531;53.326;-1.368;2022-08-04T03:36:21;19.10;54.80
37870;DHT22;62531;53.326;-1.368;2022-08-04T03:52:42;18.40;56.60
37870;DHT22;62531;53.326;-1.368;2022-08-04T04:27:51;19.70;54.50
37870;DHT22;62531;53.326;-1.368;2022-08-04T04:32:26;19.80;54.10
37870;DHT22;62531;53.326;-1.368;2022-08-04T04:36:36;19.70;54.40
37870;DHT22;62531;53.326;-1.368;2022-08-04T04:45:40;19.10;56.00
37870;DHT22;62531;53.326;-1.368;2022-08-04T04:49:56;19.20;56.40
37870;DHT22;62531;53.326;-1.368;2022-08-04T04:54:25;19.00;57.20
37870;DHT22;62531;53.326;-1.368;2022-08-04T04:58:31;19.00;57.30
37870;DHT22;62531;53.326;-1.368;2022-08-04T05:02:56;19.00;57.50
37870;DHT22;62531;53.326;-1.368;2022-08-04T05:15:11;19.10;57.30
37870;DHT22;62531;53.326;-1.368;2022-08-04T05:19:40;19.10;57.50
37870;DHT22;62531;53.326;-1.368;2022-08-04T05:23:48;19.40;56.70
37870;DHT22;62531;53.326;-1.368;2022-08-04T05:27:56;19.30;57.00
37870;DHT22;62531;53.326;-1.368;2022-08-04T05:32:01;19.20;57.30
37870;DHT22;62531;53.326;-1.368;2022-08-04T05:36:09;19.10;57.70
37870;DHT22;62531;53.326;-1.368;2022-08-04T05:40:11;19.20;57.60
37870;DHT22;62531;53.326;-1.368;2022-08-04T05:44:17;19.40;57.30
37870;DHT22;62531;53.326;-1.368;2022-08-04T05:48:19;19.50;56.80
37870;DHT22;62531;53.326;-1.368;2022-08-04T05:52:22;19.50;56.70
37870;DHT22;62531;53.326;-1.368;2022-08-04T05:56:24;19.50;56.60
37870;DHT22;62531;53.326;-1.368;2022-08-04T06:00:27;19.70;56.30
37870;DHT22;62531;53.326;-1.368;2022-08-04T06:04:37;19.70;55.80
37870;DHT22;62531;53.326;-1.368;2022-08-04T06:08:39;19.70;56.20
37870;DHT22;62531;53.326;-1.368;2022-08-04T06:12:46;19.70;55.70
37870;DHT22;62531;53.326;-1.368;2022-08-04T06:16:51;19.80;55.50
37870;DHT22;62531;53.326;-1.368;2022-08-04T06:20:53;19.70;55.50
37870;DHT22;62531;53.326;-1.368;2022-08-04T06:24:57;19.80;55.10
37870;DHT22;62531;53.326;-1.368;2022-08-04T06:29:01;19.70;55.60
37870;DHT22;62531;53.326;-1.368;2022-08-04T06:33:03;19.60;55.90
37870;DHT22;62531;53.326;-1.368;2022-08-04T06:37:14;19.70;55.70
37870;DHT22;62531;53.326;-1.368;2022-08-04T06:41:16;19.80;55.10
37870;DHT22;62531;53.326;-1.368;2022-08-04T06:45:19;19.90;55.20
37870;DHT22;62531;53.326;-1.368;2022-08-04T06:49:21;20.00;55.00
37870;DHT22;62531;53.326;-1.368;2022-08-04T06:53:25;19.90;55.20
37870;DHT22;62531;53.326;-1.368;2022-08-04T06:57:28;20.10;55.20
37870;DHT22;62531;53.326;-1.368;2022-08-04T07:01:30;20.20;54.70
37870;DHT22;62531;53.326;-1.368;2022-08-04T07:05:33;20.20;54.50
37870;DHT22;62531;53.326;-1.368;2022-08-04T07:09:35;20.20;54.50
37870;DHT22;62531;53.326;-1.368;2022-08-04T07:13:36;20.10;54.40
37870;DHT22;62531;53.326;-1.368;2022-08-04T07:17:38;20.10;54.30
37870;DHT22;62531;53.326;-1.368;2022-08-04T07:21:40;20.10;54.20
37870;DHT22;62531;53.326;-1.368;2022-08-04T07:25:42;20.10;54.40
37870;DHT22;62531;53.326;-1.368;2022-08-04T07:29:43;20.10;54.70
37870;DHT22;62531;53.326;-1.368;2022-08-04T07:33:45;20.40;54.20
37870;DHT22;62531;53.326;-1.368;2022-08-04T07:37:47;20.40;53.80
37870;DHT22;62531;53.326;-1.368;2022-08-04T07:41:49;20.50;53.50
37870;DHT22;62531;53.326;-1.368;2022-08-04T07:45:51;20.60;52.60
37870;DHT22;62531;53.326;-1.368;2022-08-04T07:49:53;20.60;52.10
37870;DHT22;62531;53.326;-1.368;2022-08-04T07:53:55;20.60;51.60
37870;DHT22;62531;53.326;-1.368;2022-08-04T07:57:57;20.70;51.00
37870;DHT22;62531;53.326;-1.368;2022-08-04T08:02:00;20.70;51.20
37870;DHT22;62531;53.326;-1.368;2022-08-04T08:06:03;20.80;51.30
37870;DHT22;62531;53.326;-1.368;2022-08-04T08:10:04;20.90;50.50
37870;DHT22;62531;53.326;-1.368;2022-08-04T08:14:12;20.90;50.40
37870;DHT22;62531;53.326;-1.368;2022-08-04T08:18:13;20.90;50.10
37870;DHT22;62531;53.326;-1.368;2022-08-04T08:22:14;20.80;49.80
37870;DHT22;62531;53.326;-1.368;2022-08-04T08:26:15;20.80;49.70
37870;DHT22;62531;53.326;-1.368;2022-08-04T08:30:17;20.80;49.80
37870;DHT22;62531;53.326;-1.368;2022-08-04T08:34:19;20.90;49.10
37870;DHT22;62531;53.326;-1.368;2022-08-04T09:14:09;21.20;46.90
37870;DHT22;62531;53.326;-1.368;2022-08-04T09:22:49;21.10;46.10
37870;DHT22;62531;53.326;-1.368;2022-08-04T09:27:19;21.20;45.80
37870;DHT22;62531;53.326;-1.368;2022-08-04T09:31:23;21.30;45.80
37870;DHT22;62531;53.326;-1.368;2022-08-04T09:35:53;21.40;45.50
37870;DHT22;62531;53.326;-1.368;2022-08-04T09:48:39;21.50;44.80
37870;DHT22;62531;53.326;-1.368;2022-08-04T09:52:53;21.60;44.10
37870;DHT22;62531;53.326;-1.368;2022-08-04T09:57:11;21.60;44.10
37870;DHT22;62531;53.326;-1.368;2022-08-04T10:01:18;21.50;43.70
37870;DHT22;62531;53.326;-1.368;2022-08-04T10:05:35;21.40;43.60
37870;DHT22;62531;53.326;-1.368;2022-08-04T10:23:10;21.60;43.10
37870;DHT22;62531;53.326;-1.368;2022-08-04T10:27:21;21.60;42.30
37870;DHT22;62531;53.326;-1.368;2022-08-04T10:31:29;21.60;42.10
37870;DHT22;62531;53.326;-1.368;2022-08-04T10:35:37;21.60;42.20
37870;DHT22;62531;53.326;-1.368;2022-08-04T10:40:08;21.50;41.50
37870;DHT22;62531;53.326;-1.368;2022-08-04T10:49:12;21.70;41.40
37870;DHT22;62531;53.326;-1.368;2022-08-04T10:53:19;21.90;41.40
37870;DHT22;62531;53.326;-1.368;2022-08-04T10:57:28;21.90;41.70
37870;DHT22;62531;53.326;-1.368;2022-08-04T11:01:37;21.90;42.00
37870;DHT22;62531;53.326;-1.368;2022-08-04T11:05:49;22.00;42.30
37870;DHT22;62531;53.326;-1.368;2022-08-04T11:09:52;22.00;42.40
37870;DHT22;62531;53.326;-1.368;2022-08-04T11:14:19;22.10;42.60
37870;DHT22;62531;53.326;-1.368;2022-08-04T11:18:25;22.20;42.50
37870;DHT22;62531;53.326;-1.368;2022-08-04T11:22:33;22.20;43.20
37870;DHT22;62531;53.326;-1.368;2022-08-04T11:26:48;22.40;43.40
37870;DHT22;62531;53.326;-1.368;2022-08-04T11:31:04;22.50;43.60
37870;DHT22;62531;53.326;-1.368;2022-08-04T11:35:11;22.60;43.80
37870;DHT22;62531;53.326;-1.368;2022-08-04T11:43:53;22.70;44.10
37870;DHT22;62531;53.326;-1.368;2022-08-04T11:48:04;22.70;44.20
37870;DHT22;62531;53.326;-1.368;2022-08-04T11:52:08;22.80;44.40
37870;DHT22;62531;53.326;-1.368;2022-08-04T11:56:13;22.80;44.60
37870;DHT22;62531;53.326;-1.368;2022-08-04T12:00:17;22.90;44.80
37870;DHT22;62531;53.326;-1.368;2022-08-04T12:17:28;23.10;45.20
37870;DHT22;62531;53.326;-1.368;2022-08-04T12:21:39;23.20;45.30
37870;DHT22;62531;53.326;-1.368;2022-08-04T12:25:46;23.20;45.40
37870;DHT22;62531;53.326;-1.368;2022-08-04T12:29:48;23.30;45.40
37870;DHT22;62531;53.326;-1.368;2022-08-04T12:34:08;23.40;45.50
37870;DHT22;62531;53.326;-1.368;2022-08-04T12:38:13;23.40;45.60
37870;DHT22;62531;53.326;-1.368;2022-08-04T12:42:23;23.40;45.70
37870;DHT22;62531;53.326;-1.368;2022-08-04T12:46:28;23.20;45.20
37870;DHT22;62531;53.326;-1.368;2022-08-04T12:50:31;23.20;45.60
37870;DHT22;62531;53.326;-1.368;2022-08-04T12:54:34;23.20;45.70
37870;DHT22;62531;53.326;-1.368;2022-08-04T12:58:41;23.30;45.70
37870;DHT22;62531;53.326;-1.368;2022-08-04T13:02:43;23.30;45.80
37870;DHT22;62531;53.326;-1.368;2022-08-04T13:06:56;23.30;45.80
37870;DHT22;62531;53.326;-1.368;2022-08-04T13:11:00;23.40;45.90
37870;DHT22;62531;53.326;-1.368;2022-08-04T13:15:13;23.40;45.80
37870;DHT22;62531;53.326;-1.368;2022-08-04T13:19:15;23.40;45.80
37870;DHT22;62531;53.326;-1.368;2022-08-04T13:23:17;23.40;45.90
37870;DHT22;62531;53.326;-1.368;2022-08-04T13:27:20;23.50;46.00
37870;DHT22;62531;53.326;-1.368;2022-08-04T13:31:25;23.50;46.00
37870;DHT22;62531;53.326;-1.368;2022-08-04T13:35:28;23.50;46.00
37870;DHT22;62531;53.326;-1.368;2022-08-04T13:39:31;23.50;46.20
37870;DHT22;62531;53.326;-1.368;2022-08-04T13:43:42;23.50;46.30
37870;DHT22;62531;53.326;-1.368;2022-08-04T13:47:45;23.60;46.40
37870;DHT22;62531;53.326;-1.368;2022-08-04T13:51:54;23.60;46.40
37870;DHT22;62531;53.326;-1.368;2022-08-04T13:55:56;23.70;46.40
37870;DHT22;62531;53.326;-1.368;2022-08-04T14:00:06;23.70;46.50
37870;DHT22;62531;53.326;-1.368;2022-08-04T14:04:16;23.70;46.50
37870;DHT22;62531;53.326;-1.368;2022-08-04T14:08:26;23.80;46.90
37870;DHT22;62531;53.326;-1.368;2022-08-04T14:12:30;23.80;46.70
37870;DHT22;62531;53.326;-1.368;2022-08-04T14:16:32;23.80;46.70
37870;DHT22;62531;53.326;-1.368;2022-08-04T14:20:33;23.70;46.70
37870;DHT22;62531;53.326;-1.368;2022-08-04T14:24:34;23.70;47.40
37870;DHT22;62531;53.326;-1.368;2022-08-04T14:28:36;23.70;46.90
37870;DHT22;62531;53.326;-1.368;2022-08-04T14:32:56;23.80;47.00
37870;DHT22;62531;53.326;-1.368;2022-08-04T14:37:06;23.80;47.00
37870;DHT22;62531;53.326;-1.368;2022-08-04T14:41:08;23.80;47.00
37870;DHT22;62531;53.326;-1.368;2022-08-04T14:45:10;23.80;47.00
37870;DHT22;62531;53.326;-1.368;2022-08-04T14:49:12;23.80;47.00
37870;DHT22;62531;53.326;-1.368;2022-08-04T14:53:21;23.80;47.10
37870;DHT22;62531;53.326;-1.368;2022-08-04T14:57:24;23.80;47.10
37870;DHT22;62531;53.326;-1.368;2022-08-04T15:01:26;23.80;46.10
37870;DHT22;62531;53.326;-1.368;2022-08-04T15:05:29;23.80;46.00
37870;DHT22;62531;53.326;-1.368;2022-08-04T15:09:31;23.70;46.00
37870;DHT22;62531;53.326;-1.368;2022-08-04T15:13:33;23.70;44.90
37870;DHT22;62531;53.326;-1.368;2022-08-04T15:17:35;23.70;44.90
37870;DHT22;62531;53.326;-1.368;2022-08-04T15:21:38;23.70;44.90
37870;DHT22;62531;53.326;-1.368;2022-08-04T15:25:42;23.60;43.80
37870;DHT22;62531;53.326;-1.368;2022-08-04T15:29:49;23.60;43.90
37870;DHT22;62531;53.326;-1.368;2022-08-04T15:33:54;23.70;44.20
37870;DHT22;62531;53.326;-1.368;2022-08-04T15:38:04;23.70;44.80
37870;DHT22;62531;53.326;-1.368;2022-08-04T15:55:29;23.60;43.00
37870;DHT22;62531;53.326;-1.368;2022-08-04T16:00:05;23.60;42.80
37870;DHT22;62531;53.326;-1.368;2022-08-04T16:04:33;23.70;42.70
37870;DHT22;62531;53.326;-1.368;2022-08-04T16:08:59;23.60;42.10
37870;DHT22;62531;53.326;-1.368;2022-08-04T16:17:14;23.70;42.20
37870;DHT22;62531;53.326;-1.368;2022-08-04T16:21:18;23.70;42.40
37870;DHT22;62531;53.326;-1.368;2022-08-04T16:25:40;23.70;41.70
37870;DHT22;62531;53.326;-1.368;2022-08-04T16:33:45;23.70;41.70
37870;DHT22;62531;53.326;-1.368;2022-08-04T16:37:46;23.40;40.50
37870;DHT22;62531;53.326;-1.368;2022-08-04T16:41:48;23.20;40.60
37870;DHT22;62531;53.326;-1.368;2022-08-04T16:45:53;23.30;40.00
37870;DHT22;62531;53.326;-1.368;2022-08-04T16:50:02;23.20;39.90
37870;DHT22;62531;53.326;-1.368;2022-08-04T16:54:03;23.30;41.10
37870;DHT22;62531;53.326;-1.368;2022-08-04T16:58:04;23.50;41.70
37870;DHT22;62531;53.326;-1.368;2022-08-04T17:02:06;23.60;41.80
37870;DHT22;62531;53.326;-1.368;2022-08-04T17:06:11;23.60;41.60
37870;DHT22;62531;53.326;-1.368;2022-08-04T17:10:14;23.70;41.90
37870;DHT22;62531;53.326;-1.368;2022-08-04T17:14:24;23.80;41.70
37870;DHT22;62531;53.326;-1.368;2022-08-04T17:18:32;23.80;41.50
37870;DHT22;62531;53.326;-1.368;2022-08-04T17:22:36;23.80;41.40
37870;DHT22;62531;53.326;-1.368;2022-08-04T17:26:39;23.70;41.20
37870;DHT22;62531;53.326;-1.368;2022-08-04T17:30:41;23.60;40.90
37870;DHT22;62531;53.326;-1.368;2022-08-04T17:34:46;23.60;40.60
37870;DHT22;62531;53.326;-1.368;2022-08-04T17:38:53;23.50;40.70
37870;DHT22;62531;53.326;-1.368;2022-08-04T17:43:07;23.50;40.70
37870;DHT22;62531;53.326;-1.368;2022-08-04T17:47:17;23.40;40.80
37870;DHT22;62531;53.326;-1.368;2022-08-04T17:51:19;23.40;40.70
37870;DHT22;62531;53.326;-1.368;2022-08-04T17:55:21;23.40;40.60
37870;DHT22;62531;53.326;-1.368;2022-08-04T17:59:40;23.40;40.70
37870;DHT22;62531;53.326;-1.368;2022-08-04T18:03:41;23.30;40.50
37870;DHT22;62531;53.326;-1.368;2022-08-04T18:07:42;23.30;40.60
37870;DHT22;62531;53.326;-1.368;2022-08-04T18:11:54;23.30;40.50
37870;DHT22;62531;53.326;-1.368;2022-08-04T18:16:05;23.30;40.30
37870;DHT22;62531;53.326;-1.368;2022-08-04T18:20:09;23.20;40.30
37870;DHT22;62531;53.326;-1.368;2022-08-04T18:24:13;23.20;40.10
37870;DHT22;62531;53.326;-1.368;2022-08-04T18:28:14;23.20;40.00
37870;DHT22;62531;53.326;-1.368;2022-08-04T18:32:16;23.20;40.00
37870;DHT22;62531;53.326;-1.368;2022-08-04T18:36:17;23.20;39.80
37870;DHT22;62531;53.326;-1.368;2022-08-04T18:40:19;23.20;39.80
37870;DHT22;62531;53.326;-1.368;2022-08-04T18:44:21;23.20;39.80
37870;DHT22;62531;53.326;-1.368;2022-08-04T18:48:23;23.20;39.70
37870;DHT22;62531;53.326;-1.368;2022-08-04T18:52:25;23.20;39.80
37870;DHT22;62531;53.326;-1.368;2022-08-04T18:56:29;23.10;39.50
37870;DHT22;62531;53.326;-1.368;2022-08-04T19:00:30;23.10;39.40
37870;DHT22;62531;53.326;-1.368;2022-08-04T19:04:31;23.00;39.30
37870;DHT22;62531;53.326;-1.368;2022-08-04T19:08:33;23.00;39.50
37870;DHT22;62531;53.326;-1.368;2022-08-04T19:12:34;23.00;39.60
37870;DHT22;62531;53.326;-1.368;2022-08-04T19:16:35;23.00;39.60
37870;DHT22;62531;53.326;-1.368;2022-08-04T19:20:37;23.00;39.70
37870;DHT22;62531;53.326;-1.368;2022-08-04T19:24:38;23.00;39.80
37870;DHT22;62531;53.326;-1.368;2022-08-04T19:28:39;23.00;39.80
37870;DHT22;62531;53.326;-1.368;2022-08-04T19:32:40;23.00;39.80
37870;DHT22;62531;53.326;-1.368;2022-08-04T19:36:41;23.00;39.80
37870;DHT22;62531;53.326;-1.368;2022-08-04T19:40:43;23.00;40.10
37870;DHT22;62531;53.326;-1.368;2022-08-04T19:44:46;23.10;40.90
37870;DHT22;62531;53.326;-1.368;2022-08-04T19:48:48;23.10;40.70
37870;DHT22;62531;53.326;-1.368;2022-08-04T19:52:49;23.10;41.40
37870;DHT22;62531;53.326;-1.368;2022-08-04T19:56:50;23.20;41.80
37870;DHT22;62531;53.326;-1.368;2022-08-04T20:00:52;23.20;41.90
37870;DHT22;62531;53.326;-1.368;2022-08-04T20:04:53;23.30;42.20
37870;DHT22;62531;53.326;-1.368;2022-08-04T20:08:55;23.30;42.30
37870;DHT22;62531;53.326;-1.368;2022-08-04T20:12:56;23.30;42.50
37870;DHT22;62531;53.326;-1.368;2022-08-04T20:16:58;23.30;42.50
37870;DHT22;62531;53.326;-1.368;2022-08-04T20:20:59;23.30;42.60
37870;DHT22;62531;53.326;-1.368;2022-08-04T20:25:01;23.30;42.70
37870;DHT22;62531;53.326;-1.368;2022-08-04T20:29:03;23.30;42.20
37870;DHT22;62531;53.326;-1.368;2022-08-04T20:33:04;23.40;42.70
37870;DHT22;62531;53.326;-1.368;2022-08-04T20:37:06;23.40;42.90
37870;DHT22;62531;53.326;-1.368;2022-08-04T20:41:07;23.40;43.00
37870;DHT22;62531;53.326;-1.368;2022-08-04T20:45:09;23.50;43.10
37870;DHT22;62531;53.326;-1.368;2022-08-04T20:49:10;23.60;43.30
37870;DHT22;62531;53.326;-1.368;2022-08-04T20:53:12;23.60;43.40
37870;DHT22;62531;53.326;-1.368;2022-08-04T20:57:13;23.60;43.40
37870;DHT22;62531;53.326;-1.368;2022-08-04T21:01:14;23.70;43.60
37870;DHT22;62531;53.326;-1.368;2022-08-04T21:05:15;23.80;43.60
37870;DHT22;62531;53.326;-1.368;2022-08-04T21:09:16;23.80;43.60
37870;DHT22;62531;53.326;-1.368;2022-08-04T21:13:17;23.80;43.70
37870;DHT22;62531;53.326;-1.368;2022-08-04T21:17:18;23.90;43.80
37870;DHT22;62531;53.326;-1.368;2022-08-04T21:21:20;23.90;43.80
37870;DHT22;62531;53.326;-1.368;2022-08-04T21:25:21;23.90;43.90
37870;DHT22;62531;53.326;-1.368;2022-08-04T21:29:23;24.00;44.00
37870;DHT22;62531;53.326;-1.368;2022-08-04T21:33:26;24.00;44.00
37870;DHT22;62531;53.326;-1.368;2022-08-04T21:37:27;24.00;44.10
37870;DHT22;62531;53.326;-1.368;2022-08-04T21:41:29;24.00;44.10
37870;DHT22;62531;53.326;-1.368;2022-08-04T21:45:30;24.10;44.10
37870;DHT22;62531;53.326;-1.368;2022-08-04T21:49:33;24.10;44.10
37870;DHT22;62531;53.326;-1.368;2022-08-04T21:53:35;24.10;44.20
37870;DHT22;62531;53.326;-1.368;2022-08-04T21:57:36;24.10;44.20
37870;DHT22;62531;53.326;-1.368;2022-08-04T22:01:37;24.10;44.20
37870;DHT22;62531;53.326;-1.368;2022-08-04T22:05:38;24.20;44.40
37870;DHT22;62531;53.326;-1.368;2022-08-04T22:09:39;24.10;44.10
37870;DHT22;62531;53.326;-1.368;2022-08-04T22:13:42;24.20;44.40
37870;DHT22;62531;53.326;-1.368;2022-08-04T22:17:43;24.20;44.40
37870;DHT22;62531;53.326;-1.368;2022-08-04T22:21:44;24.20;44.30
37870;DHT22;62531;53.326;-1.368;2022-08-04T22:25:46;24.20;44.40
37870;DHT22;62531;53.326;-1.368;2022-08-04T22:29:47;24.20;44.50
37870;DHT22;62531;53.326;-1.368;2022-08-04T22:33:48;24.20;44.20
37870;DHT22;62531;53.326;-1.368;2022-08-04T22:37:54;24.20;44.10
37870;DHT22;62531;53.326;-1.368;2022-08-04T22:41:57;24.20;44.40
37870;DHT22;62531;53.326;-1.368;2022-08-04T22:45:58;24.20;43.90
37870;DHT22;62531;53.326;-1.368;2022-08-04T22:50:00;24.20;43.70
37870;DHT22;62531;53.326;-1.368;2022-08-04T22:54:01;24.20;43.80
37870;DHT22;62531;53.326;-1.368;2022-08-04T22:58:02;24.20;43.50
37870;DHT22;62531;53.326;-1.368;2022-08-04T23:02:03;24.20;43.60
37870;DHT22;62531;53.326;-1.368;2022-08-04T23:06:06;24.20;43.80
37870;DHT22;62531;53.326;-1.368;2022-08-04T23:10:08;24.20;43.60
37870;DHT22;62531;53.326;-1.368;2022-08-04T23:14:09;23.80;41.30
37870;DHT22;62531;53.326;-1.368;2022-08-04T23:18:10;24.00;42.90
37870;DHT22;62531;53.326;-1.368;2022-08-04T23:22:11;24.10;43.50
37870;DHT22;62531;53.326;-1.368;2022-08-04T23:26:14;24.20;43.20
37870;DHT22;62531;53.326;-1.368;2022-08-04T23:30:15;24.20;43.30
37870;DHT22;62531;53.326;-1.368;2022-08-04T23:34:16;24.20;43.30
37870;DHT22;62531;53.326;-1.368;2022-08-04T23:38:17;24.30;43.20
37870;DHT22;62531;53.326;-1.368;2022-08-04T23:42:19;24.30;43.30
37870;DHT22;62531;53.326;-1.368;2022-08-04T23:46:20;24.30;43.30
37870;DHT22;62531;53.326;-1.368;2022-08-04T23:50:21;24.30;43.20
37870;DHT22;62531;53.326;-1.368;2022-08-04T23:54:23;24.30;43.20
37870;DHT22;62531;53.326;-1.368;2022-08-04T23:58:24;24.30;43.00
